TimeEDT,TemperatureF,Dew PointF,Humidity,Sea Level PressureIn,VisibilityMPH,Wind Direction,Wind SpeedMPH,Gust SpeedMPH,PrecipitationIn,Events,Conditions,WindDirDegrees,DateUTC
12:54 AM,78.1,73.0,84,29.87,8.0,SSW,3.5,-,N/A,,Clear,200,2013-06-13 04:54:00
1:54 AM,75.9,73.0,91,29.87,7.0,Calm,Calm,-,N/A,,Clear,0,2013-06-13 05:54:00
2:54 AM,73.9,72.0,93,29.86,5.0,SSE,3.5,-,N/A,,Clear,160,2013-06-13 06:54:00
3:54 AM,73.9,72.0,93,29.86,3.0,Calm,Calm,-,N/A,,Clear,0,2013-06-13 07:54:00
4:54 AM,75.0,72.0,90,29.85,6.0,Calm,Calm,-,N/A,,Clear,0,2013-06-13 08:54:00
5:54 AM,75.0,73.0,94,29.83,7.0,SSW,3.5,-,N/A,,Clear,210,2013-06-13 09:54:00
6:54 AM,75.9,73.0,91,29.83,6.0,SW,4.6,-,N/A,,Clear,230,2013-06-13 10:54:00
7:54 AM,81.0,73.9,79,29.81,8.0,SW,6.9,-,N/A,,Clear,220,2013-06-13 11:54:00
8:54 AM,86.0,73.0,65,29.81,10.0,WSW,11.5,-,N/A,,Clear,240,2013-06-13 12:54:00
9:54 AM,91.0,73.0,55,29.80,10.0,SW,6.9,17.3,N/A,,Clear,220,2013-06-13 13:54:00
10:54 AM,93.9,72.0,49,29.79,10.0,SW,11.5,19.6,N/A,,Clear,220,2013-06-13 14:54:00
11:54 AM,96.1,69.1,41,29.78,10.0,SW,16.1,23.0,N/A,,Clear,230,2013-06-13 15:54:00
12:54 PM,97.0,69.1,40,29.75,10.0,SW,12.7,21.9,N/A,,Clear,230,2013-06-13 16:54:00
1:54 PM,99.0,66.9,35,29.72,10.0,WSW,13.8,23.0,N/A,,Clear,240,2013-06-13 17:54:00
2:54 PM,100.0,68.0,35,29.70,10.0,SW,17.3,25.3,N/A,,Clear,230,2013-06-13 18:54:00
3:54 PM,99.0,66.9,35,29.68,10.0,WSW,20.7,26.5,N/A,,Clear,250,2013-06-13 19:54:00
4:54 PM,98.1,68.0,37,29.65,10.0,WSW,19.6,28.8,N/A,,Clear,240,2013-06-13 20:54:00
5:54 PM,96.1,68.0,40,29.65,10.0,WSW,18.4,29.9,N/A,,Clear,240,2013-06-13 21:54:00
6:54 PM,93.0,68.0,44,29.67,10.0,WSW,11.5,-,N/A,,Clear,250,2013-06-13 22:54:00
7:54 PM,84.0,57.9,41,29.69,10.0,North,-9999.0,-,N/A,,Scattered Clouds,0,2013-06-13 23:54:00
8:54 PM,79.0,62.1,56,29.68,10.0,Calm,Calm,-,N/A,,Clear,0,2013-06-14 00:54:00
9:30 PM,77.0,64.4,65,29.67,10.0,Calm,Calm,-,N/A,Thunderstorm,Partly Cloudy,0,2013-06-14 01:30:00
9:49 PM,73.4,66.2,78,29.72,1.8,NNW,18.4,26.5,0.17,Rain-Thunderstorm,Heavy Thunderstorms and Rain,330,2013-06-14 01:49:00
9:51 PM,71.6,66.2,83,29.74,1.0,NW,19.6,26.5,0.30,Rain-Thunderstorm,Heavy Thunderstorms and Rain,320,2013-06-14 01:51:00
9:54 PM,71.1,68.0,90,29.71,0.8,NNW,13.8,25.3,0.41,Rain-Thunderstorm,Heavy Thunderstorms and Rain,340,2013-06-14 01:54:00
10:01 PM,71.6,69.8,94,29.72,1.2,North,11.5,-,0.01,Rain-Thunderstorm,Light Thunderstorms and Rain,350,2013-06-14 02:01:00
10:03 PM,71.6,69.8,94,29.73,2.5,NNW,8.1,-,0.01,Rain-Thunderstorm,Light Thunderstorms and Rain,330,2013-06-14 02:03:00
10:10 PM,71.6,69.8,94,29.76,4.0,WNW,9.2,-,0.06,Rain-Thunderstorm,Thunderstorms and Rain,290,2013-06-14 02:10:00
10:13 PM,71.6,69.8,94,29.75,1.8,West,6.9,-,0.13,Rain-Thunderstorm,Heavy Thunderstorms and Rain,280,2013-06-14 02:13:00
10:20 PM,71.6,69.8,94,29.73,1.2,North,5.8,-,0.16,Rain-Thunderstorm,Thunderstorms and Rain,360,2013-06-14 02:20:00
10:23 PM,71.6,69.8,94,29.73,2.5,North,4.6,-,0.16,Rain-Thunderstorm,Light Thunderstorms and Rain,10,2013-06-14 02:23:00
10:30 PM,71.6,69.8,94,29.74,5.0,North,3.5,-,0.17,Rain-Thunderstorm,Light Thunderstorms and Rain,350,2013-06-14 02:30:00
10:54 PM,72.0,70.0,93,29.73,10.0,WSW,3.5,-,0.18,Thunderstorm,Mostly Cloudy,250,2013-06-14 02:54:00
11:22 PM,71.6,69.8,94,29.74,9.0,Calm,Calm,-,N/A,,Mostly Cloudy,0,2013-06-14 03:22:00
11:54 PM,72.0,70.0,93,29.73,9.0,West,3.5,-,N/A,,Overcast,280,2013-06-14 03:54:00